createdAt,value
2018-11-06T00:01:17.950Z,9.57
2018-11-06T00:03:47.176Z,9.54
2018-11-06T00:06:16.654Z,9.49
2018-11-06T00:08:45.610Z,9.46
2018-11-06T00:11:15.294Z,9.45
2018-11-06T00:13:44.802Z,9.40
2018-11-06T00:16:14.523Z,9.39
2018-11-06T00:18:44.330Z,9.33
2018-11-06T00:21:13.290Z,9.24
2018-11-06T00:23:42.587Z,9.18
2018-11-06T00:26:12.334Z,9.15
2018-11-06T00:28:41.382Z,9.13
2018-11-06T00:31:10.684Z,9.11
2018-11-06T00:33:41.390Z,9.11
2018-11-06T00:36:10.311Z,9.07
2018-11-06T00:38:39.582Z,9.05
2018-11-06T00:41:08.928Z,9.04
2018-11-06T00:43:38.247Z,9.04
2018-11-06T00:46:07.539Z,9.00
2018-11-06T00:48:37.136Z,8.98
2018-11-06T00:51:06.706Z,8.98
2018-11-06T00:53:36.201Z,8.96
2018-11-06T00:56:05.458Z,8.92
2018-11-06T00:58:35.070Z,8.87
2018-11-06T01:01:04.398Z,8.78
2018-11-06T01:03:33.433Z,8.65
2018-11-06T01:06:02.723Z,8.59
2018-11-06T01:08:32.221Z,8.57
2018-11-06T01:11:01.738Z,8.58
2018-11-06T01:13:31.175Z,8.57
2018-11-06T01:16:00.721Z,8.58
2018-11-06T01:18:30.293Z,8.57
2018-11-06T01:20:59.238Z,8.55
2018-11-06T01:23:28.185Z,8.52
2018-11-06T01:25:57.465Z,8.50
2018-11-06T01:28:26.750Z,8.48
2018-11-06T01:30:56.205Z,8.46
2018-11-06T01:33:25.482Z,8.42
2018-11-06T01:35:54.779Z,8.37
2018-11-06T01:38:24.252Z,8.30
2018-11-06T01:40:53.710Z,8.30
2018-11-06T01:43:23.431Z,8.24
2018-11-06T01:45:52.989Z,8.18
2018-11-06T01:48:22.562Z,8.10
2018-11-06T01:50:51.858Z,8.14
2018-11-06T01:53:22.470Z,8.10
2018-11-06T01:55:51.738Z,8.05
2018-11-06T01:58:21.039Z,8.03
2018-11-06T02:00:50.317Z,8.01
2018-11-06T02:03:19.589Z,8.01
2018-11-06T02:05:48.526Z,8.00
2018-11-06T02:08:18.090Z,7.97
2018-11-06T02:10:47.898Z,7.95
2018-11-06T02:13:17.461Z,7.93
2018-11-06T02:15:46.735Z,7.90
2018-11-06T02:18:15.970Z,7.87
2018-11-06T02:20:45.654Z,7.84
2018-11-06T02:23:14.921Z,7.81
2018-11-06T02:25:44.250Z,7.77
2018-11-06T02:28:13.817Z,7.72
2018-11-06T02:30:43.877Z,7.69
2018-11-06T02:33:14.173Z,7.68
2018-11-06T02:35:43.211Z,7.65
2018-11-06T02:38:12.390Z,7.64
2018-11-06T02:40:41.675Z,7.63
2018-11-06T02:43:10.951Z,7.59
2018-11-06T02:45:40.882Z,7.58
2018-11-06T02:48:10.111Z,7.56
2018-11-06T02:50:39.719Z,7.53
2018-11-06T02:53:09.006Z,7.48
2018-11-06T02:55:38.738Z,7.43
2018-11-06T02:58:08.496Z,7.41
2018-11-06T03:00:37.779Z,7.36
2018-11-06T03:03:07.326Z,7.36
2018-11-06T03:05:37.683Z,7.35
2018-11-06T03:08:06.997Z,7.35
2018-11-06T03:10:36.423Z,7.34
2018-11-06T03:13:05.289Z,7.31
2018-11-06T03:15:34.626Z,7.27
2018-11-06T03:18:04.634Z,7.20
2018-11-06T03:20:34.582Z,7.18
2018-11-06T03:23:13.142Z,7.14
2018-11-06T03:25:42.701Z,7.14
2018-11-06T03:28:11.970Z,7.11
2018-11-06T03:30:42.231Z,7.09
2018-11-06T03:33:11.449Z,7.06
2018-11-06T03:35:40.401Z,7.04
2018-11-06T03:38:09.738Z,7.03
2018-11-06T03:40:39.009Z,7.00
2018-11-06T03:43:08.642Z,6.99
2018-11-06T03:45:38.117Z,6.97
2018-11-06T03:48:07.451Z,6.94
2018-11-06T03:50:36.674Z,6.91
2018-11-06T03:53:05.906Z,6.88
2018-11-06T03:55:35.549Z,6.84
2018-11-06T03:58:04.841Z,6.79
2018-11-06T04:00:34.113Z,6.77
2018-11-06T04:03:04.553Z,6.76
2018-11-06T04:05:33.695Z,6.73
2018-11-06T04:08:02.922Z,6.72
2018-11-06T04:10:32.194Z,6.69
2018-11-06T04:13:01.652Z,6.67
2018-11-06T04:15:30.877Z,6.67
2018-11-06T04:18:00.164Z,6.66
2018-11-06T04:20:29.092Z,6.64
2018-11-06T04:22:58.902Z,6.61
2018-11-06T04:25:28.193Z,6.59
2018-11-06T04:27:57.785Z,6.58
2018-11-06T04:30:27.074Z,6.56
2018-11-06T04:32:56.727Z,6.54
2018-11-06T04:35:25.998Z,6.53
2018-11-06T04:37:55.266Z,6.50
2018-11-06T04:40:24.846Z,6.51
2018-11-06T04:42:54.116Z,6.52
2018-11-06T04:45:23.685Z,6.50
2018-11-06T04:47:53.226Z,6.51
2018-11-06T04:50:23.106Z,6.50
2018-11-06T04:52:52.386Z,6.46
2018-11-06T04:55:22.206Z,6.43
2018-11-06T04:57:51.763Z,6.40
2018-11-06T05:00:21.133Z,6.38
2018-11-06T05:02:50.926Z,6.38
2018-11-06T05:05:20.322Z,6.36
2018-11-06T05:07:49.655Z,6.34
2018-11-06T05:10:18.951Z,6.34
2018-11-06T05:12:48.222Z,6.32
2018-11-06T05:15:17.787Z,6.30
2018-11-06T05:17:47.250Z,6.28
2018-11-06T05:20:16.538Z,6.26
2018-11-06T05:22:46.098Z,6.26
2018-11-06T05:25:15.095Z,6.24
2018-11-06T05:27:44.191Z,6.25
2018-11-06T05:30:13.848Z,6.24
2018-11-06T05:32:43.141Z,6.23
2018-11-06T05:35:13.554Z,6.22
2018-11-06T05:37:43.139Z,6.21
2018-11-06T05:40:24.106Z,6.20
2018-11-06T05:42:53.374Z,6.16
2018-11-06T05:45:23.006Z,6.16
2018-11-06T05:47:52.430Z,6.16
2018-11-06T05:50:22.226Z,6.15
2018-11-06T05:52:51.614Z,6.14
2018-11-06T05:55:21.174Z,6.14
2018-11-06T05:57:50.442Z,6.12
2018-11-06T06:00:20.076Z,6.10
2018-11-06T06:02:49.490Z,6.09
2018-11-06T06:05:19.049Z,6.08
2018-11-06T06:07:48.089Z,6.06
2018-11-06T06:10:17.371Z,6.07
2018-11-06T06:12:46.925Z,6.05
2018-11-06T06:15:15.875Z,6.05
2018-11-06T06:17:45.718Z,6.04
2018-11-06T06:20:14.982Z,6.02
2018-11-06T06:22:44.251Z,6.00
2018-11-06T06:25:13.527Z,6.00
2018-11-06T06:27:43.401Z,6.00
2018-11-06T06:30:16.302Z,6.02
2018-11-06T06:32:45.570Z,6.04
2018-11-06T06:35:14.548Z,6.05
2018-11-06T06:37:44.431Z,6.06
2018-11-06T06:40:13.827Z,6.09
2018-11-06T06:42:42.654Z,6.12
2018-11-06T06:45:11.898Z,6.15
2018-11-06T06:47:41.158Z,6.17
2018-11-06T06:50:10.389Z,6.18
2018-11-06T06:52:39.671Z,6.19
2018-11-06T06:55:08.680Z,6.17
2018-11-06T06:57:38.526Z,6.15
2018-11-06T07:00:07.526Z,6.10
2018-11-06T07:02:36.627Z,6.12
2018-11-06T07:05:06.406Z,6.18
2018-11-06T07:07:35.674Z,6.24
2018-11-06T07:10:05.081Z,6.29
2018-11-06T07:12:34.662Z,6.37
2018-11-06T07:15:04.995Z,6.44
2018-11-06T07:17:34.289Z,6.62
2018-11-06T07:20:03.254Z,6.91
2018-11-06T07:22:32.879Z,7.17
2018-11-06T07:25:01.918Z,7.31
2018-11-06T07:27:31.385Z,7.37
2018-11-06T07:30:00.671Z,7.37
2018-11-06T07:32:31.619Z,7.36
2018-11-06T07:35:01.464Z,7.35
2018-11-06T07:37:30.428Z,7.34
2018-11-06T07:39:59.681Z,7.35
2018-11-06T07:42:29.265Z,7.32
2018-11-06T07:44:58.550Z,7.31
2018-11-06T07:47:27.560Z,7.31
2018-11-06T07:49:56.892Z,7.35
2018-11-06T07:52:25.891Z,7.41
2018-11-06T07:54:55.411Z,7.49
2018-11-06T07:57:24.686Z,7.59
2018-11-06T07:59:53.982Z,7.67
2018-11-06T08:02:23.472Z,7.76
2018-11-06T08:04:52.857Z,7.86
2018-11-06T08:07:22.489Z,7.90
2018-11-06T08:09:51.852Z,7.92
2018-11-06T08:12:21.375Z,7.94
2018-11-06T08:14:50.702Z,8.00
2018-11-06T08:17:20.673Z,8.06
2018-11-06T08:19:50.429Z,8.16
2018-11-06T08:22:20.727Z,8.29
2018-11-06T08:24:50.290Z,8.47
2018-11-06T08:27:19.774Z,8.72
2018-11-06T08:29:49.346Z,8.99
2018-11-06T08:32:19.095Z,9.32
2018-11-06T08:34:48.174Z,9.74
2018-11-06T08:37:17.799Z,10.22
2018-11-06T08:39:47.376Z,10.73
2018-11-06T08:42:16.989Z,11.19
2018-11-06T08:44:46.521Z,11.67
2018-11-06T08:47:15.810Z,12.10
2018-11-06T08:49:45.398Z,12.48
2018-11-06T08:52:14.971Z,12.83
2018-11-06T08:54:44.667Z,13.13
2018-11-06T08:57:14.047Z,13.43
2018-11-06T08:59:43.526Z,13.68
2018-11-06T09:02:12.804Z,13.95
2018-11-06T09:04:42.074Z,14.21
2018-11-06T09:07:11.650Z,14.36
2018-11-06T09:09:40.946Z,14.49
2018-11-06T09:12:10.509Z,14.63
2018-11-06T09:14:39.799Z,14.83
2018-11-06T09:17:09.164Z,15.09
2018-11-06T09:19:38.678Z,15.40
2018-11-06T09:22:08.232Z,15.70
2018-11-06T09:24:37.962Z,15.87
2018-11-06T09:27:08.262Z,15.99
2018-11-06T09:29:37.646Z,16.23
2018-11-06T09:32:07.680Z,16.48
2018-11-06T09:34:36.965Z,16.54
2018-11-06T09:37:06.539Z,16.43
2018-11-06T09:39:35.810Z,16.26
2018-11-06T09:42:05.445Z,16.00
2018-11-06T09:44:34.715Z,15.89
2018-11-06T09:47:03.936Z,16.05
2018-11-06T09:49:33.230Z,16.34
2018-11-06T09:52:02.464Z,16.59
2018-11-06T09:54:31.918Z,16.71
2018-11-06T09:57:01.202Z,16.90
2018-11-06T09:59:30.741Z,17.09
2018-11-06T10:02:00.030Z,17.18
2018-11-06T10:04:30.046Z,17.40
2018-11-06T10:06:59.624Z,17.74
2018-11-06T10:09:28.822Z,17.92
2018-11-06T10:11:58.093Z,17.89
2018-11-06T10:14:27.745Z,17.76
2018-11-06T10:16:57.290Z,17.66
2018-11-06T10:19:26.894Z,17.69
2018-11-06T10:21:56.366Z,17.78
2018-11-06T10:24:25.742Z,18.00
2018-11-06T10:26:55.015Z,18.27
2018-11-06T10:29:24.286Z,18.50
2018-11-06T10:31:53.861Z,18.65
2018-11-06T10:34:23.137Z,18.62
2018-11-06T10:36:52.965Z,18.61
2018-11-06T10:39:22.238Z,18.78
2018-11-06T10:41:51.803Z,19.04
2018-11-06T10:44:21.573Z,19.27
2018-11-06T10:46:51.006Z,19.51
2018-11-06T10:49:19.966Z,19.73
2018-11-06T10:51:49.777Z,19.92
2018-11-06T10:54:19.225Z,20.11
2018-11-06T10:56:48.813Z,20.28
2018-11-06T10:59:18.127Z,20.45
2018-11-06T11:01:53.385Z,20.55
2018-11-06T11:04:23.022Z,20.70
2018-11-06T11:06:52.422Z,20.71
2018-11-06T11:09:22.092Z,20.56
2018-11-06T11:11:51.361Z,20.28
2018-11-06T11:14:21.156Z,19.96
2018-11-06T11:16:50.623Z,19.72
2018-11-06T11:19:20.185Z,19.65
2018-11-06T11:21:49.198Z,19.59
2018-11-06T11:24:18.141Z,19.47
2018-11-06T11:26:47.406Z,19.31
2018-11-06T11:29:16.971Z,19.07
2018-11-06T11:31:46.277Z,18.77
2018-11-06T11:34:15.594Z,18.59
2018-11-06T11:36:45.050Z,18.47
2018-11-06T11:39:14.531Z,18.39
2018-11-06T11:41:44.067Z,18.36
2018-11-06T11:44:13.343Z,18.38
2018-11-06T11:46:43.057Z,18.39
2018-11-06T11:49:12.642Z,18.33
2018-11-06T11:51:41.965Z,18.35
2018-11-06T11:54:10.913Z,18.36
2018-11-06T11:56:40.189Z,18.42
2018-11-06T11:59:09.538Z,18.55
2018-11-06T12:01:39.149Z,18.72
2018-11-06T12:04:09.364Z,18.94
2018-11-06T12:06:38.939Z,19.22
2018-11-06T12:09:10.777Z,19.37
2018-11-06T12:11:44.520Z,19.60
2018-11-06T12:14:15.975Z,19.83
2018-11-06T12:16:45.255Z,19.95
2018-11-06T12:19:14.633Z,20.04
2018-11-06T12:21:43.920Z,20.04
2018-11-06T12:24:13.045Z,20.00
2018-11-06T12:26:42.205Z,19.95
2018-11-06T12:29:12.058Z,19.81
2018-11-06T12:31:41.342Z,19.70
2018-11-06T12:34:10.613Z,19.68
2018-11-06T12:36:40.246Z,19.53
2018-11-06T12:39:20.206Z,19.42
2018-11-06T12:41:49.478Z,19.36
2018-11-06T12:44:18.785Z,19.36
2018-11-06T12:46:48.277Z,19.40
2018-11-06T12:49:17.702Z,19.42
2018-11-06T12:51:47.114Z,19.42
2018-11-06T12:54:16.394Z,19.44
2018-11-06T12:56:46.014Z,19.39
2018-11-06T12:59:15.594Z,19.34
2018-11-06T13:01:45.153Z,19.30
2018-11-06T13:04:14.468Z,19.16
2018-11-06T13:06:43.681Z,19.02
2018-11-06T13:09:13.199Z,18.93
2018-11-06T13:11:42.474Z,18.99
2018-11-06T13:14:12.054Z,19.16
2018-11-06T13:16:41.337Z,19.34
2018-11-06T13:19:10.630Z,19.52
2018-11-06T13:21:40.415Z,19.66
2018-11-06T13:24:10.664Z,19.72
2018-11-06T13:26:40.345Z,19.63
2018-11-06T13:29:10.230Z,19.49
2018-11-06T13:31:39.502Z,19.34
2018-11-06T13:34:08.443Z,19.22
2018-11-06T13:36:37.739Z,19.21
2018-11-06T13:39:06.977Z,19.21
2018-11-06T13:41:36.304Z,19.14
2018-11-06T13:44:07.164Z,19.05
2018-11-06T13:46:36.413Z,18.93
2018-11-06T13:49:06.889Z,18.82
2018-11-06T13:51:36.315Z,18.72
2018-11-06T13:54:06.398Z,18.62
2018-11-06T13:56:35.664Z,18.54
2018-11-06T13:59:05.455Z,18.48
2018-11-06T14:01:34.726Z,18.39
2018-11-06T14:04:04.013Z,18.30
2018-11-06T14:06:33.495Z,18.23
2018-11-06T14:09:02.502Z,18.12
2018-11-06T14:11:31.962Z,18.00
2018-11-06T14:14:02.131Z,17.86
2018-11-06T14:16:31.674Z,17.70
2018-11-06T14:19:01.090Z,17.46
2018-11-06T14:21:30.891Z,17.53
2018-11-06T14:24:00.374Z,17.42
2018-11-06T14:26:29.641Z,17.30
2018-11-06T14:29:02.348Z,17.20
2018-11-06T14:31:31.626Z,17.08
2018-11-06T14:34:00.898Z,16.99
2018-11-06T14:36:30.404Z,16.93
2018-11-06T14:38:59.354Z,16.89
2018-11-06T14:41:28.636Z,16.86
2018-11-06T14:43:57.897Z,16.80
2018-11-06T14:46:27.477Z,16.74
2018-11-06T14:48:56.824Z,16.73
2018-11-06T14:51:26.407Z,16.75
2018-11-06T14:53:55.682Z,16.74
2018-11-06T14:56:25.002Z,16.73
2018-11-06T14:58:54.570Z,16.75
2018-11-06T15:01:23.866Z,16.77
2018-11-06T15:03:53.439Z,16.79
2018-11-06T15:06:23.370Z,16.83
2018-11-06T15:08:52.645Z,16.88
2018-11-06T15:11:21.777Z,16.89
2018-11-06T15:13:51.070Z,16.89
2018-11-06T15:16:20.627Z,16.89
2018-11-06T15:18:49.910Z,16.88
2018-11-06T15:21:18.933Z,16.87
2018-11-06T15:23:48.442Z,16.85
2018-11-06T15:26:17.827Z,16.81
2018-11-06T15:28:47.540Z,16.78
2018-11-06T15:31:18.085Z,16.75
2018-11-06T15:33:47.566Z,16.69
2018-11-06T15:36:16.849Z,16.63
2018-11-06T15:38:45.844Z,16.54
2018-11-06T15:41:15.727Z,16.42
2018-11-06T15:43:45.102Z,16.27
2018-11-06T15:46:14.666Z,16.15
2018-11-06T15:48:44.114Z,16.02
2018-11-06T15:51:13.738Z,15.91
2018-11-06T15:53:43.024Z,15.82
2018-11-06T15:56:12.783Z,15.68
2018-11-06T15:58:42.076Z,15.59
2018-11-06T16:01:11.643Z,15.47
2018-11-06T16:03:40.913Z,15.31
2018-11-06T16:06:10.489Z,15.25
2018-11-06T16:08:39.762Z,15.18
2018-11-06T16:11:09.060Z,15.13
2018-11-06T16:13:38.623Z,15.09
2018-11-06T16:16:08.114Z,15.02
2018-11-06T16:18:37.810Z,14.92
2018-11-06T16:21:07.165Z,14.98
2018-11-06T16:23:36.787Z,14.99
2018-11-06T16:26:06.890Z,14.96
2018-11-06T16:28:36.162Z,14.95
2018-11-06T16:31:06.562Z,14.95
2018-11-06T16:33:36.033Z,14.94
2018-11-06T16:36:06.930Z,14.96
2018-11-06T16:38:36.492Z,14.89
2018-11-06T16:41:06.633Z,14.84
2018-11-06T16:43:35.921Z,14.79
2018-11-06T16:46:04.863Z,14.72
2018-11-06T16:48:34.131Z,14.68
2018-11-06T16:51:04.138Z,14.65
2018-11-06T16:53:33.898Z,14.63
2018-11-06T16:56:03.347Z,14.64
2018-11-06T16:58:33.098Z,14.61
2018-11-06T17:01:02.680Z,14.60
2018-11-06T17:03:32.151Z,14.58
2018-11-06T17:06:01.741Z,14.56
2018-11-06T17:08:30.677Z,14.53
2018-11-06T17:10:59.977Z,14.50
2018-11-06T17:13:29.730Z,14.47
2018-11-06T17:15:59.014Z,14.43
2018-11-06T17:18:27.978Z,14.43
2018-11-06T17:20:57.249Z,14.43
2018-11-06T17:23:26.810Z,14.42
2018-11-06T17:25:56.096Z,14.40
2018-11-06T17:28:25.384Z,14.37
2018-11-06T17:30:55.442Z,14.35
2018-11-06T17:33:25.074Z,14.31
2018-11-06T17:35:54.074Z,14.25
2018-11-06T17:38:23.948Z,14.24
2018-11-06T17:40:53.439Z,14.21
2018-11-06T17:43:23.104Z,14.16
2018-11-06T17:45:52.391Z,14.11
2018-11-06T17:48:22.026Z,14.08
2018-11-06T17:50:51.290Z,14.05
2018-11-06T17:53:20.801Z,14.02
2018-11-06T17:55:50.318Z,13.95
2018-11-06T17:58:19.853Z,13.84
2018-11-06T18:00:48.649Z,13.70
2018-11-06T18:03:18.140Z,13.56
2018-11-06T18:05:47.442Z,13.48
2018-11-06T18:08:17.103Z,13.41
2018-11-06T18:10:46.111Z,13.37
2018-11-06T18:13:15.846Z,13.32
2018-11-06T18:15:45.146Z,13.29
2018-11-06T18:18:14.749Z,13.24
2018-11-06T18:20:44.229Z,13.19
2018-11-06T18:23:13.507Z,13.18
2018-11-06T18:25:43.211Z,13.16
2018-11-06T18:28:12.766Z,13.16
2018-11-06T18:30:41.706Z,13.17
2018-11-06T18:33:11.239Z,13.19
2018-11-06T18:35:40.705Z,13.23
2018-11-06T18:38:09.950Z,13.23
2018-11-06T18:40:39.405Z,13.22
2018-11-06T18:43:10.054Z,13.21
2018-11-06T18:45:39.565Z,13.17
2018-11-06T18:48:09.157Z,13.14
2018-11-06T18:50:38.919Z,13.10
2018-11-06T18:53:08.491Z,13.07
2018-11-06T18:55:38.083Z,13.05
2018-11-06T18:58:07.545Z,13.03
2018-11-06T19:00:37.011Z,12.99
2018-11-06T19:03:07.290Z,12.96
2018-11-06T19:05:36.903Z,12.93
2018-11-06T19:08:07.370Z,12.86
2018-11-06T19:10:36.825Z,12.90
2018-11-06T19:13:07.380Z,12.90
2018-11-06T19:15:36.638Z,12.88
2018-11-06T19:18:09.466Z,12.85
2018-11-06T19:20:39.093Z,12.82
2018-11-06T19:23:09.438Z,12.82
2018-11-06T19:25:47.095Z,12.84
2018-11-06T19:28:16.622Z,12.85
2018-11-06T19:30:46.575Z,12.85
2018-11-06T19:33:16.134Z,12.80
2018-11-06T19:35:45.401Z,12.75
2018-11-06T19:38:15.007Z,12.73
2018-11-06T19:40:44.704Z,12.72
2018-11-06T19:43:14.266Z,12.70
2018-11-06T19:45:43.537Z,12.66
2018-11-06T19:48:13.126Z,12.61
2018-11-06T19:50:42.442Z,12.58
2018-11-06T19:53:11.574Z,12.55
2018-11-06T19:55:41.286Z,12.50
2018-11-06T19:58:10.601Z,12.46
2018-11-06T20:00:40.228Z,12.41
2018-11-06T20:03:09.674Z,12.37
2018-11-06T20:05:39.360Z,12.31
2018-11-06T20:08:09.090Z,12.28
2018-11-06T20:10:38.673Z,12.27
2018-11-06T20:13:08.784Z,12.29
2018-11-06T20:15:38.449Z,12.30
2018-11-06T20:18:08.017Z,12.31
2018-11-06T20:20:37.465Z,12.31
2018-11-06T20:23:07.791Z,12.30
2018-11-06T20:25:37.350Z,12.26
2018-11-06T20:28:08.143Z,12.27
2018-11-06T20:30:37.619Z,12.24
2018-11-06T20:33:07.823Z,12.22
2018-11-06T20:35:37.684Z,12.17
2018-11-06T20:38:07.645Z,12.16
2018-11-06T20:40:37.025Z,12.13
2018-11-06T20:43:06.488Z,12.09
2018-11-06T20:45:36.329Z,12.07
2018-11-06T20:48:05.027Z,12.04
2018-11-06T20:50:34.124Z,12.02
2018-11-06T20:53:04.906Z,11.99
2018-11-06T20:55:34.916Z,11.94
2018-11-06T20:58:04.465Z,11.94
2018-11-06T21:00:33.946Z,11.93
2018-11-06T21:03:04.415Z,11.91
2018-11-06T21:05:33.738Z,11.88
2018-11-06T21:08:02.932Z,11.85
2018-11-06T21:10:32.185Z,11.80
2018-11-06T21:13:01.615Z,11.78
2018-11-06T21:15:31.419Z,11.75
2018-11-06T21:18:00.872Z,11.73
2018-11-06T21:20:30.449Z,11.70
2018-11-06T21:22:59.757Z,11.68
2018-11-06T21:25:29.210Z,11.64
2018-11-06T21:27:58.642Z,11.60
2018-11-06T21:30:27.919Z,11.57
2018-11-06T21:32:57.831Z,11.55
2018-11-06T21:35:27.420Z,11.52
2018-11-06T21:37:56.698Z,11.47
2018-11-06T21:40:26.024Z,11.41
2018-11-06T21:42:55.279Z,11.35
2018-11-06T21:45:24.719Z,11.31
2018-11-06T21:47:54.457Z,11.27
2018-11-06T21:50:27.777Z,11.26
2018-11-06T21:52:57.841Z,11.25
2018-11-06T21:55:27.147Z,11.24
2018-11-06T21:57:56.373Z,11.24
2018-11-06T22:00:25.975Z,11.25
2018-11-06T22:02:55.594Z,11.26
2018-11-06T22:05:25.174Z,11.24
2018-11-06T22:07:54.729Z,11.22
2018-11-06T22:10:23.903Z,11.19
2018-11-06T22:12:53.852Z,11.15
2018-11-06T22:15:24.236Z,11.11
2018-11-06T22:17:53.361Z,11.08
2018-11-06T22:20:23.070Z,11.06
2018-11-06T22:22:52.334Z,11.04
2018-11-06T22:25:21.595Z,11.01
2018-11-06T22:27:50.892Z,11.00
2018-11-06T22:30:19.840Z,10.97
2018-11-06T22:32:49.597Z,10.90
2018-11-06T22:35:19.079Z,10.89
2018-11-06T22:37:48.420Z,10.86
2018-11-06T22:40:17.869Z,10.83
2018-11-06T22:42:47.333Z,10.77
2018-11-06T22:45:16.362Z,10.73
2018-11-06T22:47:45.336Z,10.71
2018-11-06T22:50:15.152Z,10.70
2018-11-06T22:52:44.734Z,10.68
2018-11-06T22:55:14.233Z,10.66
2018-11-06T22:57:43.773Z,10.62
2018-11-06T23:00:12.294Z,10.59
2018-11-06T23:02:41.815Z,10.58
2018-11-06T23:05:11.393Z,10.54
2018-11-06T23:07:40.681Z,10.53
2018-11-06T23:10:10.146Z,10.52
2018-11-06T23:12:39.390Z,10.52
2018-11-06T23:15:07.974Z,10.53
2018-11-06T23:17:37.257Z,10.55
2018-11-06T23:20:08.997Z,10.55
2018-11-06T23:22:38.181Z,10.56
2018-11-06T23:25:08.051Z,10.56
2018-11-06T23:27:37.744Z,10.57
2018-11-06T23:30:20.624Z,10.59
2018-11-06T23:33:02.077Z,10.62
2018-11-06T23:35:37.331Z,10.62
2018-11-06T23:38:08.192Z,10.64
2018-11-06T23:40:38.002Z,10.63
2018-11-06T23:43:08.326Z,10.62
2018-11-06T23:45:38.213Z,10.61
2018-11-06T23:48:07.871Z,10.61
2018-11-06T23:50:37.338Z,10.61
2018-11-06T23:53:08.470Z,10.63
2018-11-06T23:55:37.486Z,10.62
2018-11-06T23:58:08.337Z,10.60
